Weather at Beijing Capital International Airport

Public forecast

Using degrees Celsius for public forecast. Weather courtesy of forecast.io.

Current aviation weather report (METAR) for Beijing Capital International Airport

Report is more than 6 hours old.

2022/11/14 15:30 (retrieved 2 years ago)

ZBAA 141530Z 33001MPS CAVOK M00/M01 Q1017 NOSIG

Closest aviation forecast (TAF) to Beijing Capital International Airport

Forecast is more than 12 hours old.

Closest forecast is Tianjin Binhai International Airport, 67.3 nm (124.7 km) SSE.

2023/02/22 18:10 (retrieved 1 year ago)

TAF ZBTJ 221507Z 2218/2318 23003MPS 3000 HZ NSC TX11/2306Z TNM01/2222Z